createdAt,value
2023-04-29T00:01:04.526Z,29.76
2023-04-29T00:03:10.308Z,29.7
2023-04-29T00:05:16.494Z,29.71
2023-04-29T00:07:21.623Z,29.67
2023-04-29T00:09:26.633Z,29.72
2023-04-29T00:11:31.638Z,29.71
2023-04-29T00:13:36.673Z,29.69
2023-04-29T00:15:41.670Z,29.78
2023-04-29T00:17:46.867Z,29.8
2023-04-29T00:19:52.817Z,29.72
2023-04-29T00:21:58.122Z,29.84
2023-04-29T00:24:03.150Z,29.89
2023-04-29T00:26:08.276Z,29.92
2023-04-29T00:28:13.315Z,29.84
2023-04-29T00:30:18.310Z,29.87
2023-04-29T00:32:23.366Z,29.81
2023-04-29T00:34:28.535Z,29.89
2023-04-29T00:36:33.609Z,30.14
2023-04-29T00:38:38.597Z,29.91
2023-04-29T00:40:43.729Z,29.93
2023-04-29T00:42:49.069Z,29.87
2023-04-29T00:44:54.058Z,29.9
2023-04-29T00:46:59.050Z,30
2023-04-29T00:49:04.184Z,30.02
2023-04-29T00:51:09.199Z,29.91
2023-04-29T00:53:14.202Z,30.03
2023-04-29T00:55:19.184Z,29.97
2023-04-29T00:57:24.193Z,29.93
2023-04-29T00:59:29.210Z,29.99
2023-04-29T01:01:34.318Z,30.06
2023-04-29T01:03:40.245Z,30.05
2023-04-29T01:05:45.381Z,30.06
2023-04-29T01:07:50.385Z,30.13
2023-04-29T01:09:56.010Z,30.23
2023-04-29T01:12:00.998Z,30.21
2023-04-29T01:14:06.060Z,30.29
2023-04-29T01:16:11.589Z,30.36
2023-04-29T01:18:16.621Z,30.26
2023-04-29T01:20:21.592Z,30.26
2023-04-29T01:22:26.664Z,30.31
2023-04-29T01:24:31.743Z,30.38
2023-04-29T01:26:36.705Z,30.42
2023-04-29T01:28:41.686Z,30.34
2023-04-29T01:30:46.674Z,30.44
2023-04-29T01:32:52.364Z,30.55
2023-04-29T01:34:57.408Z,30.62
2023-04-29T01:37:02.453Z,30.71
2023-04-29T01:39:07.530Z,30.83
2023-04-29T02:33:11.402Z,30.7
2023-04-29T02:35:16.451Z,30.46
2023-04-29T02:37:21.454Z,30.53
2023-04-29T02:39:26.430Z,30.53
2023-04-29T02:41:31.392Z,30.54
2023-04-29T02:43:36.361Z,30.7
2023-04-29T02:45:41.433Z,30.58
2023-04-29T02:47:46.590Z,30.64
2023-04-29T02:49:52.220Z,30.67
2023-04-29T02:51:57.376Z,30.73
2023-04-29T02:54:02.332Z,30.77
2023-04-29T02:56:07.341Z,30.86
2023-04-29T02:58:12.384Z,30.75
2023-04-29T03:00:17.417Z,30.94
2023-04-29T03:02:22.706Z,30.87
2023-04-29T03:04:28.193Z,30.8
2023-04-29T03:06:33.226Z,30.8
2023-04-29T03:08:38.207Z,30.88
2023-04-29T03:10:44.202Z,30.87
2023-04-29T03:12:49.134Z,30.88
2023-04-29T03:14:54.125Z,30.93
2023-04-29T03:16:59.330Z,30.98
2023-04-29T03:19:04.377Z,30.99
2023-04-29T03:21:09.384Z,30.97
2023-04-29T03:23:14.368Z,30.98
2023-04-29T03:25:19.354Z,31
2023-04-29T03:27:24.363Z,31.05
2023-04-29T03:29:29.360Z,31.08
2023-04-29T03:31:34.501Z,31.1
2023-04-29T03:33:39.484Z,31.13
2023-04-29T03:35:44.527Z,31.18
2023-04-29T03:37:49.523Z,31.11
2023-04-29T03:39:55.588Z,31.17
2023-04-29T03:42:00.628Z,31.26
2023-04-29T03:44:05.712Z,31.14
2023-04-29T03:46:10.801Z,31.18
2023-04-29T03:48:15.806Z,31.13
2023-04-29T03:50:20.811Z,31.27
2023-04-29T03:52:25.785Z,31.24
2023-04-29T03:54:30.757Z,31.4
2023-04-29T03:56:35.884Z,31.33
2023-04-29T03:58:40.944Z,31.52
2023-04-29T04:00:45.898Z,31.44
2023-04-29T04:02:51.541Z,31.4
2023-04-29T04:04:57.097Z,31.38
2023-04-29T04:07:02.137Z,31.45
2023-04-29T04:09:07.151Z,31.57
2023-04-29T04:11:12.240Z,31.49
2023-04-29T04:13:17.208Z,31.47
2023-04-29T04:15:22.221Z,31.6
2023-04-29T04:17:27.238Z,31.59
2023-04-29T04:19:32.193Z,31.5
2023-04-29T04:21:37.171Z,31.59
2023-04-29T04:23:42.258Z,31.75
2023-04-29T04:25:47.243Z,31.79
2023-04-29T04:27:52.269Z,31.86
2023-04-29T04:29:57.209Z,32.1
2023-04-29T04:32:02.339Z,31.87
2023-04-29T04:34:07.405Z,31.91
2023-04-29T04:36:12.436Z,31.93
2023-04-29T04:38:17.459Z,31.83
2023-04-29T04:40:22.390Z,31.87
2023-04-29T04:42:27.385Z,31.88
2023-04-29T04:44:32.518Z,31.91
2023-04-29T04:46:37.547Z,31.96
2023-04-29T04:48:42.600Z,32.06
2023-04-29T04:50:47.663Z,32
2023-04-29T04:52:52.685Z,32.08
2023-04-29T04:54:57.690Z,32.07
2023-04-29T04:57:02.669Z,32.06
2023-04-29T04:59:07.880Z,32.12
2023-04-29T05:01:13.032Z,32.15
2023-04-29T05:03:18.474Z,32.15
2023-04-29T05:05:23.633Z,32.24
2023-04-29T05:07:28.606Z,32.33
2023-04-29T05:09:33.754Z,32.29
2023-04-29T05:11:38.731Z,32.33
2023-04-29T05:13:43.729Z,32.38
2023-04-29T05:15:48.752Z,32.32
2023-04-29T05:17:53.880Z,32.42
2023-04-29T05:19:58.945Z,32.41
2023-04-29T05:22:03.925Z,32.44
2023-04-29T05:24:09.061Z,32.49
2023-04-29T05:26:14.020Z,32.54
2023-04-29T05:28:19.044Z,32.51
2023-04-29T05:30:24.072Z,32.54
2023-04-29T05:32:29.234Z,32.63
2023-04-29T05:34:34.242Z,32.64
2023-04-29T05:36:39.218Z,32.69
2023-04-29T05:38:44.202Z,32.9
2023-04-29T05:40:49.234Z,33.13
2023-04-29T05:42:54.220Z,33.31
2023-04-29T05:44:59.218Z,33.51
2023-04-29T05:47:04.210Z,33.63
2023-04-29T05:49:09.210Z,33.63
2023-04-29T05:51:14.230Z,33.72
2023-04-29T05:53:19.222Z,33.75
2023-04-29T05:55:24.223Z,33.94
2023-04-29T05:57:29.219Z,34
2023-04-29T05:59:34.201Z,34.08
2023-04-29T06:01:39.218Z,34.04
2023-04-29T06:03:44.786Z,34.03
2023-04-29T06:05:51.075Z,34.87
2023-04-29T06:07:56.123Z,34.87
2023-04-29T06:10:01.297Z,34.63
2023-04-29T06:12:06.258Z,34.72
2023-04-29T06:14:11.243Z,34.05
2023-04-29T06:16:16.394Z,34.91
2023-04-29T06:18:21.470Z,34.62
2023-04-29T06:20:26.496Z,35.1
2023-04-29T06:22:31.487Z,35.2
2023-04-29T06:24:36.480Z,35.39
2023-04-29T06:26:41.506Z,35.42
2023-04-29T06:28:46.512Z,35.46
2023-04-29T06:30:51.602Z,35.33
2023-04-29T06:32:56.752Z,35.54
2023-04-29T06:35:01.809Z,35.54
2023-04-29T06:37:06.823Z,35.5
2023-04-29T06:39:11.853Z,35.53
2023-04-29T06:41:16.860Z,35.4
2023-04-29T06:43:21.858Z,34.91
2023-04-29T06:45:26.853Z,35.36
2023-04-29T06:47:32.028Z,35.48
2023-04-29T06:49:37.138Z,35.23
2023-04-29T06:51:42.186Z,35.29
2023-04-29T06:53:47.175Z,35.15
2023-04-29T06:55:52.140Z,34.99
2023-04-29T06:57:57.135Z,35.34
2023-04-29T07:00:02.251Z,35.08
2023-04-29T07:02:07.269Z,35.25
2023-04-29T07:04:12.389Z,34.95
2023-04-29T07:06:17.431Z,35.28
2023-04-29T07:08:22.446Z,35.2
2023-04-29T07:10:27.536Z,35
2023-04-29T07:12:32.496Z,35.03
2023-04-29T07:14:37.658Z,35.24
2023-04-29T07:16:42.994Z,35.35
2023-04-29T07:18:47.899Z,35.37
2023-04-29T07:20:52.870Z,35.44
2023-04-29T07:22:58.017Z,35.45
2023-04-29T07:25:03.045Z,35.49
2023-04-29T07:27:08.121Z,35.72
2023-04-29T07:29:13.142Z,35.71
2023-04-29T07:31:18.274Z,35.7
2023-04-29T07:33:23.316Z,35.88
2023-04-29T07:35:28.343Z,35.71
2023-04-29T07:37:33.302Z,35.84
2023-04-29T07:39:38.322Z,35.87
2023-04-29T07:41:43.362Z,36.17
2023-04-29T07:43:48.386Z,36.09
2023-04-29T07:45:53.528Z,36.12
2023-04-29T07:47:58.730Z,36.13
2023-04-29T07:50:03.763Z,36.09
2023-04-29T07:52:08.808Z,35.88
2023-04-29T07:54:13.832Z,35.68
2023-04-29T07:56:18.811Z,35.62
2023-04-29T07:58:24.012Z,35.65
2023-04-29T08:00:29.067Z,35.64
2023-04-29T08:02:34.570Z,35.53
2023-04-29T08:04:40.421Z,35.59
2023-04-29T08:06:45.622Z,35.48
2023-04-29T08:08:50.628Z,35.52
2023-04-29T08:10:55.679Z,35.41
2023-04-29T08:13:00.708Z,35.55
2023-04-29T08:15:10.008Z,35.48
2023-04-29T08:17:15.106Z,35.51
2023-04-29T08:19:20.109Z,35.52
2023-04-29T08:21:25.121Z,35.5
2023-04-29T08:23:30.131Z,35.51
2023-04-29T08:25:35.119Z,35.38
2023-04-29T08:27:40.318Z,35.52
2023-04-29T08:29:45.324Z,35.37
2023-04-29T08:31:50.509Z,35.31
2023-04-29T08:33:55.536Z,35.24
2023-04-29T08:36:00.545Z,35.32
2023-04-29T08:38:05.556Z,35.24
2023-04-29T08:40:10.559Z,35.3
2023-04-29T08:42:15.573Z,35.2
2023-04-29T08:44:20.570Z,35.16
2023-04-29T08:46:26.042Z,35.2
2023-04-29T08:48:31.490Z,35.21
2023-04-29T08:50:36.633Z,35.27
2023-04-29T08:52:41.615Z,35.33
2023-04-29T08:54:46.602Z,35.24
2023-04-29T08:56:51.708Z,35.38
2023-04-29T08:58:56.723Z,35.59
2023-04-29T09:01:01.801Z,35.46
2023-04-29T09:03:07.224Z,35.5
2023-04-29T09:05:12.341Z,35.48
2023-04-29T09:07:17.329Z,35.43
2023-04-29T09:09:23.380Z,35.39
2023-04-29T09:11:28.393Z,35.4
2023-04-29T09:13:33.419Z,35.35
2023-04-29T09:15:38.551Z,35.44
2023-04-29T09:17:43.737Z,35.44
2023-04-29T09:19:48.846Z,35.47
2023-04-29T09:21:53.880Z,35.44
2023-04-29T09:23:58.929Z,35.49
2023-04-29T09:26:04.027Z,35.47
2023-04-29T09:28:09.327Z,35.52
2023-04-29T09:30:14.387Z,35.46
2023-04-29T09:32:19.519Z,35.44
2023-04-29T09:34:24.592Z,35.46
2023-04-29T09:36:29.581Z,35.49
2023-04-29T09:38:35.059Z,35.47
2023-04-29T09:41:02.402Z,35.39
2023-04-29T09:43:07.586Z,35.4
2023-04-29T09:45:12.604Z,35.34
2023-04-29T09:47:17.637Z,35.32
2023-04-29T09:49:22.663Z,35.37
2023-04-29T09:51:27.705Z,35.34
2023-04-29T09:53:33.153Z,35.37
2023-04-29T09:55:38.311Z,35.36
2023-04-29T09:57:46.669Z,35.33
2023-04-29T09:59:51.716Z,35.31
2023-04-29T10:01:57.116Z,35.29
2023-04-29T10:04:02.405Z,35.35
2023-04-29T10:06:07.445Z,35.39
2023-04-29T10:08:12.475Z,35.31
2023-04-29T10:10:17.631Z,35.34
2023-04-29T10:12:22.910Z,35.37
2023-04-29T10:14:27.902Z,35.36
2023-04-29T10:16:33.361Z,35.58
2023-04-29T10:18:38.892Z,35.59
2023-04-29T10:20:43.928Z,35.85
2023-04-29T10:22:48.952Z,35.98
2023-04-29T10:24:54.669Z,35.99
2023-04-29T10:26:59.706Z,35.86
2023-04-29T10:29:04.736Z,36
2023-04-29T10:31:10.025Z,36.17
2023-04-29T10:33:15.224Z,36.58
2023-04-29T10:35:20.380Z,36.69
2023-04-29T10:37:25.417Z,36.7
2023-04-29T10:39:30.447Z,36.83
2023-04-29T10:41:35.432Z,37.06
2023-04-29T10:43:40.405Z,37.05
2023-04-29T10:45:45.407Z,37.08
2023-04-29T10:47:50.659Z,36.84
2023-04-29T10:49:55.678Z,37.27
2023-04-29T10:52:00.738Z,36.95
2023-04-29T10:54:05.766Z,36.63
2023-04-29T10:56:10.842Z,36.77
2023-04-29T10:58:15.900Z,37.09
2023-04-29T11:00:20.952Z,36.85
2023-04-29T11:02:26.178Z,36.92
2023-04-29T11:04:31.393Z,37.26
2023-04-29T11:06:36.497Z,37.38
2023-04-29T11:08:41.487Z,37.42
2023-04-29T11:10:46.630Z,37.08
2023-04-29T11:12:51.609Z,37.14
2023-04-29T11:14:57.271Z,36.93
2023-04-29T11:17:02.374Z,36.92
2023-04-29T11:19:07.489Z,36.98
2023-04-29T11:21:12.596Z,36.74
2023-04-29T11:23:17.753Z,36.84
2023-04-29T11:25:22.777Z,36.87
2023-04-29T11:27:27.911Z,36.94
2023-04-29T11:29:32.869Z,37.02
2023-04-29T11:31:38.326Z,37.06
2023-04-29T11:33:43.395Z,37.01
2023-04-29T11:35:48.456Z,37.2
2023-04-29T11:37:53.473Z,36.97
2023-04-29T11:39:58.431Z,36.84
2023-04-29T11:42:03.380Z,36.74
2023-04-29T11:44:08.457Z,36.79
2023-04-29T11:46:13.729Z,36.68
2023-04-29T11:48:18.817Z,36.54
2023-04-29T11:50:23.872Z,36.64
2023-04-29T11:52:28.887Z,36.64
2023-04-29T11:54:33.844Z,36.62
2023-04-29T11:56:38.785Z,36.46
2023-04-29T11:58:43.752Z,36.47
2023-04-29T12:00:48.838Z,36.44
2023-04-29T12:02:54.329Z,36.32
2023-04-29T12:05:01.475Z,36.33
2023-04-29T12:07:07.009Z,36.14
2023-04-29T12:09:11.944Z,36.1
2023-04-29T12:11:16.977Z,36.2
2023-04-29T12:13:22.035Z,36.3
2023-04-29T12:15:27.065Z,36.58
2023-04-29T12:17:32.250Z,36.66
2023-04-29T12:19:37.332Z,36.75
2023-04-29T12:21:42.326Z,37
2023-04-29T12:23:47.356Z,37.14
2023-04-29T12:25:52.304Z,37.17
2023-04-29T12:27:57.274Z,37.43
2023-04-29T12:30:02.246Z,37.55
2023-04-29T12:32:07.337Z,37.58
2023-04-29T12:34:12.834Z,37.88
2023-04-29T12:36:17.885Z,37.94
2023-04-29T12:38:22.894Z,38.38
2023-04-29T12:40:30.418Z,38.51
2023-04-29T12:42:35.764Z,38.66
2023-04-29T12:44:41.040Z,38.73
2023-04-29T12:46:46.233Z,38.71
2023-04-29T12:48:51.233Z,38.69
2023-04-29T12:50:56.232Z,38.6
2023-04-29T12:53:01.192Z,38.59
2023-04-29T12:55:06.330Z,39.01
2023-04-29T12:57:12.634Z,38.93
2023-04-29T12:59:17.749Z,39.23
2023-04-29T13:01:22.950Z,39.18
2023-04-29T13:03:28.989Z,39.59
2023-04-29T13:05:34.256Z,39.21
2023-04-29T13:07:39.818Z,38.96
2023-04-29T13:09:44.879Z,38.82
2023-04-29T13:11:49.872Z,38.61
2023-04-29T13:13:54.901Z,38.5
2023-04-29T13:16:02.882Z,38.41
2023-04-29T13:18:08.166Z,38.54
2023-04-29T13:20:13.735Z,38.71
2023-04-29T13:22:18.722Z,38.52
2023-04-29T13:24:23.700Z,38.33
2023-04-29T13:26:29.420Z,38.16
2023-04-29T13:28:34.440Z,37.99
2023-04-29T13:30:39.429Z,38.24
2023-04-29T13:32:59.822Z,38.23
2023-04-29T13:35:08.175Z,38.1
2023-04-29T13:37:13.207Z,37.91
2023-04-29T13:39:19.912Z,37.87
2023-04-29T13:41:27.485Z,37.99
2023-04-29T13:43:43.537Z,38.06
2023-04-29T13:45:52.304Z,38.07
2023-04-29T13:49:08.709Z,37.93
2023-04-29T13:53:01.378Z,38.13
2023-04-29T13:57:02.473Z,38.47
2023-04-29T13:59:53.634Z,38.57
2023-04-29T14:02:28.292Z,38.62
2023-04-29T14:04:34.004Z,38.6
2023-04-29T14:06:39.112Z,38.51
2023-04-29T14:08:44.127Z,38.35
2023-04-29T14:10:49.172Z,38.32
2023-04-29T14:12:54.219Z,38.45
2023-04-29T14:15:02.135Z,38.19
2023-04-29T14:17:07.272Z,38.64
2023-04-29T14:19:12.305Z,38.48
2023-04-29T14:21:17.349Z,38.78
2023-04-29T14:23:22.374Z,38.79
2023-04-29T14:25:32.292Z,38.66
2023-04-29T14:27:38.838Z,38.33
2023-04-29T14:29:43.838Z,38.2
2023-04-29T14:31:49.136Z,37.96
2023-04-29T14:33:54.377Z,38.36
2023-04-29T14:35:59.356Z,38.44
2023-04-29T14:38:04.369Z,38.29
2023-04-29T14:40:09.380Z,38.39
2023-04-29T14:42:14.332Z,38.77
2023-04-29T14:44:19.343Z,38.99
2023-04-29T14:46:24.533Z,38.79
2023-04-29T14:48:29.554Z,39.1
2023-04-29T14:50:34.868Z,38.85
2023-04-29T14:52:39.876Z,39.03
2023-04-29T14:54:44.904Z,39.31
2023-04-29T14:56:50.005Z,39.2
2023-04-29T14:58:55.126Z,39.19
2023-04-29T15:01:00.090Z,39.3
2023-04-29T15:03:06.916Z,39.6
2023-04-29T15:05:12.093Z,39.92
2023-04-29T15:07:17.103Z,39.89
2023-04-29T15:09:22.095Z,39.97
2023-04-29T15:11:27.068Z,40.11
2023-04-29T15:13:33.976Z,40.06
2023-04-29T15:15:38.936Z,40
2023-04-29T15:17:44.116Z,39.93
2023-04-29T15:19:49.083Z,39.87
2023-04-29T15:21:54.151Z,39.86
2023-04-29T15:23:59.314Z,39.91
2023-04-29T15:26:04.283Z,39.89
2023-04-29T15:28:09.321Z,39.88
2023-04-29T15:30:14.278Z,39.83
2023-04-29T15:32:19.410Z,39.79
2023-04-29T15:34:24.413Z,39.77
2023-04-29T15:36:29.309Z,39.89
2023-04-29T15:38:34.227Z,39.76
2023-04-29T15:40:39.161Z,39.81
2023-04-29T15:42:44.074Z,39.77
2023-04-29T15:44:49.157Z,39.68
2023-04-29T15:46:54.205Z,39.68
2023-04-29T15:48:59.230Z,39.66
2023-04-29T15:51:04.241Z,39.83
2023-04-29T15:53:09.237Z,39.88
2023-04-29T15:55:14.489Z,40.28
2023-04-29T15:57:20.023Z,41.03
2023-04-29T15:59:25.042Z,40.84
2023-04-29T16:01:30.278Z,41.27
2023-04-29T16:03:35.554Z,41.37
2023-04-29T16:05:40.615Z,41.29
2023-04-29T16:07:45.595Z,41.13
2023-04-29T16:09:50.630Z,42.46
2023-04-29T16:11:55.639Z,42.08
2023-04-29T16:14:00.644Z,42.13
2023-04-29T16:16:05.662Z,42.82
2023-04-29T16:18:10.714Z,42.84
2023-04-29T16:20:15.728Z,42.77
2023-04-29T16:22:20.725Z,42.42
2023-04-29T16:24:25.819Z,42.44
2023-04-29T16:26:30.820Z,42.61
2023-04-29T16:28:35.805Z,42.95
2023-04-29T16:30:40.795Z,42.76
2023-04-29T16:32:45.882Z,42.27
2023-04-29T16:34:51.003Z,42.83
2023-04-29T16:36:56.156Z,42.66
2023-04-29T16:39:01.185Z,42.8
2023-04-29T16:41:06.189Z,42.31
2023-04-29T16:43:11.182Z,41.96
2023-04-29T16:45:16.213Z,41.71
2023-04-29T16:47:21.362Z,41.45
2023-04-29T16:49:26.336Z,41.34
2023-04-29T16:51:31.496Z,41.53
2023-04-29T16:53:36.500Z,41.09
2023-04-29T16:55:41.677Z,41.5
2023-04-29T16:57:46.730Z,41.29
2023-04-29T16:59:51.858Z,41.53
2023-04-29T17:01:57.308Z,41.34
2023-04-29T17:04:02.490Z,41.45
2023-04-29T17:06:07.587Z,41.4
2023-04-29T17:08:12.702Z,41.28
2023-04-29T17:10:17.714Z,41.07
2023-04-29T17:12:22.803Z,40.83
2023-04-29T17:14:27.791Z,40.7
2023-04-29T17:16:32.992Z,40.71
2023-04-29T17:18:38.055Z,40.81
2023-04-29T17:20:43.031Z,40.54
2023-04-29T17:22:48.047Z,40.79
2023-04-29T17:24:53.472Z,40.48
2023-04-29T17:26:58.481Z,40.73
2023-04-29T17:29:03.547Z,40.45
2023-04-29T17:31:08.615Z,39.75
2023-04-29T17:33:13.782Z,39.95
2023-04-29T17:35:18.850Z,40.19
2023-04-29T17:37:23.955Z,40.26
2023-04-29T17:39:28.992Z,40.3
2023-04-29T17:41:34.015Z,40.62
2023-04-29T17:43:39.186Z,40.39
2023-04-29T17:45:44.400Z,40.04
2023-04-29T17:47:49.916Z,40.19
2023-04-29T17:49:56.294Z,39.94
2023-04-29T17:52:01.977Z,40.06
2023-04-29T17:54:07.196Z,40.04
2023-04-29T17:56:12.268Z,40.13
2023-04-29T17:58:17.321Z,40.18
2023-04-29T18:00:22.379Z,39.89
2023-04-29T18:02:27.723Z,39.75
2023-04-29T18:04:32.793Z,39.62
2023-04-29T18:06:38.182Z,39.74
2023-04-29T18:08:43.314Z,39.62
2023-04-29T18:10:48.373Z,39.7
2023-04-29T18:12:53.459Z,39.52
2023-04-29T18:14:58.589Z,39.48
2023-04-29T18:17:03.971Z,38.91
2023-04-29T18:19:09.625Z,38.83
2023-04-29T18:21:14.663Z,38.61
2023-04-29T18:23:19.721Z,38.74
2023-04-29T18:25:24.780Z,38.6
2023-04-29T18:27:29.834Z,38.62
2023-04-29T18:29:35.002Z,38.56
2023-04-29T18:31:40.310Z,38.58
2023-04-29T18:33:45.465Z,38.57
2023-04-29T18:35:50.609Z,38.69
2023-04-29T18:37:55.652Z,38.67
2023-04-29T18:40:00.805Z,38.31
2023-04-29T18:42:05.886Z,38.36
2023-04-29T18:44:10.949Z,38.42
2023-04-29T18:46:16.152Z,38.38
2023-04-29T18:48:21.242Z,38.28
2023-04-29T18:50:26.353Z,38.43
2023-04-29T18:52:31.367Z,38.64
2023-04-29T18:54:36.544Z,38.95
2023-04-29T18:56:42.699Z,38.41
2023-04-29T18:58:47.916Z,38.61
2023-04-29T19:00:53.030Z,38.74
2023-04-29T19:02:58.495Z,38.52
2023-04-29T19:05:04.023Z,38.07
2023-04-29T19:07:09.132Z,38.12
2023-04-29T19:09:14.099Z,38.14
2023-04-29T19:11:19.058Z,38.14
2023-04-29T19:13:24.091Z,37.98
2023-04-29T19:15:29.743Z,37.9
2023-04-29T19:17:35.063Z,37.84
2023-04-29T19:19:40.146Z,37.8
2023-04-29T19:21:45.277Z,38.65
2023-04-29T19:23:50.524Z,38.55
2023-04-29T19:25:55.710Z,38.52
2023-04-29T19:28:01.301Z,38.79
2023-04-29T19:30:06.394Z,38.43
2023-04-29T19:32:11.481Z,38.48
2023-04-29T19:34:16.627Z,38.38
2023-04-29T19:36:21.726Z,38.49
2023-04-29T19:38:26.956Z,38.79
2023-04-29T19:40:32.003Z,38.92
2023-04-29T19:42:37.051Z,39.21
2023-04-29T19:44:42.141Z,38.67
2023-04-29T19:46:48.094Z,39.48
2023-04-29T19:48:53.284Z,38.63
2023-04-29T19:50:58.358Z,38.5
2023-04-29T19:53:03.480Z,38.32
2023-04-29T19:55:08.757Z,38.04
2023-04-29T19:57:14.029Z,38.16
2023-04-29T19:59:19.124Z,38.05
2023-04-29T20:01:24.420Z,37.88
2023-04-29T20:03:29.746Z,38.03
2023-04-29T20:05:34.822Z,37.82
2023-04-29T20:07:39.944Z,37.79
2023-04-29T20:09:45.022Z,37.73
2023-04-29T20:11:50.222Z,37.73
2023-04-29T20:13:55.280Z,37.66
2023-04-29T20:16:00.471Z,37.74
2023-04-29T20:18:05.865Z,38.21
2023-04-29T20:20:11.079Z,38.93
2023-04-29T20:22:16.203Z,37.81
2023-04-29T20:24:21.242Z,37.69
2023-04-29T20:26:26.328Z,37.7
2023-04-29T20:28:31.490Z,37.56
2023-04-29T20:30:36.648Z,37.69
2023-04-29T20:32:42.017Z,37.52
2023-04-29T20:34:47.168Z,37.5
2023-04-29T20:36:52.268Z,37.51
2023-04-29T20:38:57.322Z,37.48
2023-04-29T20:41:02.381Z,37.58
2023-04-29T20:43:07.442Z,37.54
2023-04-29T20:45:12.749Z,37.51
2023-04-29T20:47:17.833Z,37.53
2023-04-29T20:49:22.917Z,37.42
2023-04-29T20:51:27.996Z,37.38
2023-04-29T20:53:33.081Z,37.3
2023-04-29T20:55:38.311Z,37.29
2023-04-29T20:57:43.350Z,37.16
2023-04-29T20:59:48.475Z,37.16
2023-04-29T21:01:54.292Z,37.03
2023-04-29T21:03:59.596Z,36.99
2023-04-29T21:06:04.930Z,37.02
2023-04-29T21:08:10.033Z,36.96
2023-04-29T21:10:15.101Z,36.95
2023-04-29T21:12:20.339Z,36.89
2023-04-29T21:14:25.763Z,36.79
2023-04-29T21:16:30.929Z,37.15
2023-04-29T21:18:36.020Z,36.99
2023-04-29T21:20:41.112Z,37.09
2023-04-29T21:22:46.222Z,36.83
2023-04-29T21:24:51.422Z,36.8
2023-04-29T21:26:56.500Z,36.46
2023-04-29T21:29:01.573Z,36.58
2023-04-29T21:31:06.783Z,36.3
2023-04-29T21:33:12.112Z,36.29
2023-04-29T21:35:17.153Z,36.09
2023-04-29T21:37:22.249Z,36.08
2023-04-29T21:39:27.334Z,36.11
2023-04-29T21:41:32.516Z,35.87
2023-04-29T21:43:37.583Z,36.5
2023-04-29T21:45:42.615Z,36.32
2023-04-29T21:47:47.967Z,35.86
2023-04-29T21:49:54.114Z,35.95
2023-04-29T21:51:59.217Z,35.41
2023-04-29T21:54:04.280Z,35.4
2023-04-29T21:56:09.353Z,35.43
2023-04-29T21:58:14.523Z,35.38
2023-04-29T22:00:19.604Z,35.58
2023-04-29T22:02:24.801Z,34.85
2023-04-29T22:04:29.950Z,34.87
2023-04-29T22:06:35.181Z,35.65
2023-04-29T22:08:40.317Z,34.75
2023-04-29T22:10:45.361Z,34.64
2023-04-29T22:12:50.442Z,34.81
2023-04-29T22:14:55.499Z,35.24
2023-04-29T22:17:00.655Z,34.77
2023-04-29T22:19:05.815Z,34.69
2023-04-29T22:21:10.911Z,34.76
2023-04-29T22:23:16.084Z,35.75
2023-04-29T22:25:21.160Z,34.49
2023-04-29T22:27:26.242Z,34.35
2023-04-29T22:29:31.285Z,34.74
2023-04-29T22:31:36.403Z,34.7
2023-04-29T22:33:41.514Z,34.59
2023-04-29T22:35:46.800Z,34.45
2023-04-29T22:37:51.867Z,34.09
2023-04-29T22:39:58.020Z,34.14
2023-04-29T22:42:03.218Z,34.4
2023-04-29T22:44:08.265Z,34.54
2023-04-29T22:46:13.600Z,34.18
2023-04-29T22:48:18.840Z,34.56
2023-04-29T22:50:23.930Z,34.02
2023-04-29T22:52:29.045Z,33.74
2023-04-29T22:54:34.261Z,34
2023-04-29T22:56:39.314Z,34.28
2023-04-29T22:58:44.344Z,33.56
2023-04-29T23:00:49.393Z,34.21
2023-04-29T23:02:54.726Z,33.74
2023-04-29T23:05:00.406Z,33.95
2023-04-29T23:07:05.487Z,33.63
2023-04-29T23:09:10.751Z,33.99
2023-04-29T23:11:15.886Z,33.33
2023-04-29T23:13:20.975Z,34.01
2023-04-29T23:15:26.008Z,34.15
2023-04-29T23:17:31.220Z,34.09
2023-04-29T23:19:36.334Z,34.25
2023-04-29T23:21:41.465Z,33.79
2023-04-29T23:23:46.530Z,33.32
2023-04-29T23:25:51.630Z,33.63
2023-04-29T23:27:56.753Z,33.93
2023-04-29T23:30:01.922Z,33.34
2023-04-29T23:32:06.958Z,33.57
2023-04-29T23:34:11.982Z,33.92
2023-04-29T23:36:17.096Z,33.58
2023-04-29T23:38:22.253Z,33.95
2023-04-29T23:40:27.332Z,34.11
2023-04-29T23:42:32.385Z,33.39
2023-04-29T23:44:37.395Z,33.35
2023-04-29T23:46:42.721Z,34.09
2023-04-29T23:48:47.911Z,33.51
2023-04-29T23:50:52.931Z,33.63
2023-04-29T23:52:58.021Z,34
2023-04-29T23:55:03.264Z,33.96
2023-04-29T23:57:08.281Z,33.8
2023-04-29T23:59:13.308Z,34.43
